Time;durP1;ratioP1;P1;durP2;ratioP2;P2;SDS_P1;SDS_P2;PMS_P1;PMS_P2;Temp;Humidity;BMP_temperature;BMP_pressure;BME280_temperature;BME280_humidity;BME280_pressure;Samples;Min_cycle;Max_cycle;Signal;HPM_P1;HPM_P2
2023/04/30 00:00:01;;;;;;;;;44.33;39.33;;;;;-146.39;100.00;62182.44;6313955;20;3595140;-60
2023/04/30 00:02:33;;;;;;;;;37.33;34.00;;;;;-146.39;100.00;62182.44;6282590;20;3583871;-60
2023/04/30 00:05:06;;;;;;;;;47.00;37.00;;;;;-146.39;100.00;62182.44;6280689;20;3619033;-60
2023/04/30 00:07:41;;;;;;;;;43.00;36.67;;;;;-146.39;100.00;62182.44;6311291;20;2868969;-61
2023/04/30 00:10:13;;;;;;;;;45.00;37.67;;;;;-146.39;100.00;62182.44;6316732;20;3583601;-60
2023/04/30 00:12:45;;;;;;;;;49.00;39.00;;;;;-146.39;100.00;62182.44;6279208;20;2855618;-60
2023/04/30 00:15:18;;;;;;;;;46.67;38.67;;;;;-146.39;100.00;62182.44;6278449;20;2844181;-60
2023/04/30 00:17:50;;;;;;;;;49.33;40.67;;;;;-146.39;100.00;62182.44;6313135;20;3610726;-61
2023/04/30 00:20:22;;;;;;;;;46.00;40.00;;;;;-146.39;100.00;62182.44;6281064;20;2835731;-61
2023/04/30 00:22:54;;;;;;;;;49.00;40.00;;;;;-146.39;100.00;62182.44;6279248;20;2841920;-60
2023/04/30 00:25:27;;;;;;;;;48.67;39.00;;;;;-146.39;100.00;62182.44;6280654;20;2852602;-60
2023/04/30 00:27:57;;;;;;;;;47.00;38.50;;;;;-146.39;100.00;62182.44;6313055;20;2837770;-60
2023/04/30 00:30:33;;;;;;;;;50.00;40.00;;;;;-146.39;100.00;62182.44;6279920;20;2870245;-60
2023/04/30 00:33:04;;;;;;;;;48.67;41.67;;;;;-146.39;100.00;62182.44;6317832;20;3591948;-60
2023/04/30 00:35:37;;;;;;;;;51.33;39.00;;;;;-146.39;100.00;62182.44;6277391;20;3611830;-60
2023/04/30 00:38:06;;;;;;;;;49.00;40.50;;;;;-146.39;100.00;62182.44;6311552;20;2846107;-60
2023/04/30 00:40:37;;;;;;;;;47.00;38.00;;;;;-146.39;100.00;62182.44;6282115;20;2864971;-60
2023/04/30 00:43:05;;;;;;;;;52.00;40.50;;;;;-146.39;100.00;62182.44;6307720;20;2858721;-60
2023/04/30 00:45:34;;;;;;;;;51.50;42.00;;;;;-146.39;100.00;62182.44;6279994;20;2855593;-60
2023/04/30 00:48:03;;;;;;;;;51.00;42.33;;;;;-146.39;100.00;62182.44;6280443;20;2869060;-61
2023/04/30 00:50:36;;;;;;;;;47.50;40.00;;;;;-146.39;100.00;62182.44;6308399;20;2848274;-60
2023/04/30 00:53:05;;;;;;;;;47.00;40.00;;;;;-146.39;100.00;62182.44;6278910;20;2856523;-61
2023/04/30 00:55:33;;;;;;;;;41.50;37.00;;;;;-146.39;100.00;62182.44;6278738;20;2840933;-61
2023/04/30 00:58:02;;;;;;;;;47.00;41.00;;;;;-146.39;100.00;62182.44;6276109;20;2868125;-61
2023/04/30 01:00:31;;;;;;;;;44.00;36.50;;;;;-146.39;100.00;62182.44;6312360;20;2852381;-61
2023/04/30 01:03:00;;;;;;;;;43.00;36.00;;;;;-146.39;100.00;62182.44;6279306;20;2863822;-60
2023/04/30 01:05:30;;;;;;;;;48.00;38.00;;;;;-146.39;100.00;62182.44;6281132;20;2883655;-60
2023/04/30 01:07:58;;;;;;;;;40.33;36.67;;;;;-146.39;100.00;62182.44;6314720;20;3567044;-60
2023/04/30 01:10:34;;;;;;;;;44.50;37.00;;;;;-146.39;100.00;62182.44;6312364;20;2847313;-60
2023/04/30 01:13:29;;;;;;;;;43.50;36.00;;;;;-146.39;100.00;62182.44;6277835;20;2845061;-61
2023/04/30 01:16:19;;;;;;;;;43.00;37.00;;;;;-146.39;100.00;62182.44;6276770;20;2857571;-60
2023/04/30 01:19:35;;;;;;;;;38.00;33.50;;;;;-146.39;100.00;62182.44;6309981;20;3529455;-60
2023/04/30 01:22:05;;;;;;;;;40.00;34.67;;;;;-146.39;100.00;62182.44;6313020;20;3586785;-61
2023/04/30 01:25:15;;;;;;;;;40.33;35.33;;;;;-146.39;100.00;62182.44;6275723;20;2851361;-61
2023/04/30 01:28:10;;;;;;;;;47.00;37.33;;;;;-146.39;100.00;62182.44;6310450;20;3605951;-60
2023/04/30 01:30:43;;;;;;;;;43.33;37.00;;;;;-146.39;100.00;62182.44;6282750;20;2866952;-60
2023/04/30 01:33:13;;;;;;;;;43.33;36.00;;;;;-146.39;100.00;62182.44;6315885;20;2869022;-61
2023/04/30 01:36:31;;;;;;;;;42.00;35.33;;;;;-146.39;100.00;62182.44;6314852;20;2861237;-60
2023/04/30 01:39:17;;;;;;;;;40.33;35.67;;;;;-146.39;100.00;62182.44;6315925;20;3606553;-60
2023/04/30 01:41:57;;;;;;;;;41.00;36.67;;;;;-146.39;100.00;62182.44;6288763;20;3588858;-60
2023/04/30 01:45:13;;;;;;;;;40.50;35.00;;;;;-146.39;100.00;62182.44;6280887;20;2839884;-60
2023/04/30 01:47:47;;;;;;;;;39.33;35.00;;;;;-146.39;100.00;62182.44;6283088;20;3598174;-61
2023/04/30 01:50:42;;;;;;;;;41.00;34.00;;;;;-146.39;100.00;62182.44;6284559;20;3588850;-60
2023/04/30 01:53:21;;;;;;;;;40.50;34.00;;;;;-146.39;100.00;62182.44;6280514;20;2851304;-60
2023/04/30 01:55:57;;;;;;;;;37.00;33.50;;;;;-146.39;100.00;62182.44;6283304;20;2851313;-60
2023/04/30 01:58:26;;;;;;;;;39.00;33.00;;;;;-146.39;100.00;62182.44;6285275;20;3611765;-60
2023/04/30 02:00:55;;;;;;;;;40.00;34.33;;;;;-146.39;100.00;62182.44;6279750;20;2861884;-61
2023/04/30 02:03:24;;;;;;;;;41.67;35.33;;;;;-146.39;100.00;62182.44;6315999;20;2858964;-60
2023/04/30 02:05:54;;;;;;;;;38.33;34.67;;;;;-146.39;100.00;62182.44;6318863;20;3592985;-60
2023/04/30 02:08:23;;;;;;;;;40.67;35.00;;;;;-146.39;100.00;62182.44;6285200;20;3612799;-60
2023/04/30 02:10:52;;;;;;;;;42.33;34.00;;;;;-146.39;100.00;62182.44;6317182;20;3614866;-61
2023/04/30 02:13:20;;;;;;;;;41.50;36.00;;;;;-146.39;100.00;62182.44;6280953;20;2848234;-61
2023/04/30 02:15:49;;;;;;;;;44.33;37.33;;;;;-146.39;100.00;62182.44;6282829;20;3610681;-61
2023/04/30 02:18:17;;;;;;;;;47.00;36.50;;;;;-146.39;100.00;62182.44;6315532;20;2840935;-61
2023/04/30 02:20:46;;;;;;;;;46.33;36.00;;;;;-146.39;100.00;62182.44;6282177;20;3630493;-61
2023/04/30 02:23:15;;;;;;;;;48.67;38.67;;;;;-146.39;100.00;62182.44;6313015;20;2853401;-61
2023/04/30 02:25:44;;;;;;;;;48.00;39.00;;;;;-146.39;100.00;62182.44;6313344;20;3591013;-61
2023/04/30 02:28:12;;;;;;;;;48.00;40.00;;;;;-146.39;100.00;62182.44;6284094;20;2856529;-60
2023/04/30 02:30:40;;;;;;;;;50.00;41.00;;;;;-146.39;100.00;62182.44;6282040;20;2859649;-61
2023/04/30 02:33:11;;;;;;;;;38.67;35.67;;;;;-146.39;100.00;62182.44;6285012;20;2858679;-61
2023/04/30 02:35:40;;;;;;;;;48.50;40.50;;;;;-146.39;100.00;62182.44;6314814;20;2852359;-61
2023/04/30 02:38:09;;;;;;;;;48.00;40.33;;;;;-146.39;100.00;62182.44;6279884;20;2870138;-61
2023/04/30 02:40:37;;;;;;;;;48.50;38.00;;;;;-146.39;100.00;62182.44;6309465;20;2843049;-61
2023/04/30 02:43:06;;;;;;;;;40.00;34.67;;;;;-146.39;100.00;62182.44;6281931;20;2874426;-61
2023/04/30 02:45:35;;;;;;;;;44.00;38.33;;;;;-146.39;100.00;62182.44;6312381;20;2857659;-61
2023/04/30 02:48:04;;;;;;;;;43.00;38.00;;;;;-146.39;100.00;62182.44;6314302;20;2851395;-61
2023/04/30 02:50:33;;;;;;;;;48.33;40.33;;;;;-146.39;100.00;62182.44;6280101;20;2870235;-61
2023/04/30 02:53:03;;;;;;;;;39.00;34.00;;;;;-146.39;100.00;62182.44;6311950;20;2866991;-61
2023/04/30 02:55:31;;;;;;;;;39.67;33.00;;;;;-146.39;100.00;62182.44;6316826;20;3591386;-61
2023/04/30 02:58:00;;;;;;;;;39.67;35.33;;;;;-146.39;100.00;62182.44;6281365;20;3612743;-61
2023/04/30 03:00:28;;;;;;;;;41.33;37.00;;;;;-146.39;100.00;62182.44;6315425;20;3598284;-61
2023/04/30 03:02:58;;;;;;;;;39.00;33.67;;;;;-146.39;100.00;62182.44;6283154;20;3612831;-61
2023/04/30 03:05:27;;;;;;;;;40.33;35.33;;;;;-146.39;100.00;62182.44;6318126;20;3621147;-61
2023/04/30 03:07:56;;;;;;;;;38.67;34.67;;;;;-146.39;100.00;62182.44;6282004;20;2862881;-60
2023/04/30 03:10:24;;;;;;;;;41.50;35.00;;;;;-146.39;100.00;62182.44;6313574;20;2868009;-61
2023/04/30 03:12:53;;;;;;;;;39.33;34.67;;;;;-146.39;100.00;62182.44;6285373;20;3597169;-61
2023/04/30 03:15:22;;;;;;;;;38.67;34.00;;;;;-146.39;100.00;62182.44;6281228;20;3616956;-61
2023/04/30 03:17:50;;;;;;;;;35.33;34.00;;;;;-146.39;100.00;62182.44;6316620;20;3596104;-61
2023/04/30 03:20:18;;;;;;;;;32.50;30.50;;;;;-146.39;100.00;62182.44;6277395;20;2839885;-61
2023/04/30 03:22:47;;;;;;;;;38.67;33.33;;;;;-146.39;100.00;62182.44;6284266;20;3579492;-61
2023/04/30 03:25:16;;;;;;;;;39.00;33.67;;;;;-146.39;100.00;62182.44;6278000;20;2862943;-61
2023/04/30 03:27:44;;;;;;;;;38.67;32.67;;;;;-146.39;100.00;62182.44;6317521;20;3600328;-61
2023/04/30 03:30:12;;;;;;;;;32.67;31.33;;;;;-146.39;100.00;62182.44;6287606;20;3594000;-61
2023/04/30 03:32:41;;;;;;;;;35.67;33.00;;;;;-146.39;100.00;62182.44;6281691;20;2859650;-61
2023/04/30 03:35:10;;;;;;;;;33.00;31.67;;;;;-146.39;100.00;62182.44;6314615;20;3577419;-61
2023/04/30 03:37:38;;;;;;;;;37.00;33.67;;;;;-146.39;100.00;62182.44;6317251;20;3602359;-61
2023/04/30 03:40:07;;;;;;;;;30.00;30.00;;;;;-146.39;100.00;62182.44;6277270;20;2834896;-61
2023/04/30 03:42:36;;;;;;;;;35.67;33.33;;;;;-146.39;100.00;62182.44;6314432;20;3599252;-61
2023/04/30 03:45:04;;;;;;;;;29.00;26.33;;;;;-146.39;100.00;62182.44;6284046;20;3589868;-61
2023/04/30 03:47:35;;;;;;;;;37.33;33.00;;;;;-146.39;100.00;62182.44;6278586;20;2863928;-61
2023/04/30 03:50:04;;;;;;;;;36.33;34.00;;;;;-146.39;100.00;62182.44;6315029;20;3609638;-61
2023/04/30 03:52:32;;;;;;;;;33.50;32.00;;;;;-146.39;100.00;62182.44;6277451;20;2850279;-61
2023/04/30 03:55:03;;;;;;;;;35.00;32.33;;;;;-146.39;100.00;62182.44;6281447;20;2858845;-61
2023/04/30 03:57:32;;;;;;;;;47.00;37.67;;;;;-146.39;100.00;62182.44;6314630;20;3611730;-61
2023/04/30 04:00:00;;;;;;;;;42.67;36.67;;;;;-146.39;100.00;62182.44;6285401;20;3611820;-61
2023/04/30 04:02:31;;;;;;;;;38.33;34.00;;;;;-146.39;100.00;62182.44;6280608;20;2855505;-60
2023/04/30 04:04:59;;;;;;;;;42.33;33.33;;;;;-146.39;100.00;62182.44;6316849;20;3606505;-61
2023/04/30 04:07:27;;;;;;;;;35.00;32.67;;;;;-146.39;100.00;62182.44;6278727;20;3603457;-61
2023/04/30 04:09:56;;;;;;;;;35.67;31.33;;;;;-146.39;100.00;62182.44;6278726;20;2848270;-61
2023/04/30 04:12:25;;;;;;;;;33.00;32.00;;;;;-146.39;100.00;62182.44;6312860;20;3598659;-61
2023/04/30 04:14:54;;;;;;;;;35.33;32.33;;;;;-146.39;100.00;62182.44;6281625;20;3607614;-61
2023/04/30 04:17:23;;;;;;;;;39.00;34.50;;;;;-146.39;100.00;62182.44;6310600;20;2857569;-61
2023/04/30 04:19:51;;;;;;;;;36.00;34.00;;;;;-146.39;100.00;62182.44;6284241;20;3605495;-62
2023/04/30 04:22:20;;;;;;;;;33.00;31.00;;;;;-146.39;100.00;62182.44;6278601;20;2854505;-61
2023/04/30 04:24:48;;;;;;;;;31.33;30.67;;;;;-146.39;100.00;62182.44;6285407;20;3591942;-61
2023/04/30 04:27:19;;;;;;;;;33.63;31.50;;;;;-146.39;100.00;62182.44;6301307;20;3602442;-61
2023/04/30 04:29:47;;;;;;;;;43.33;34.67;;;;;-146.39;100.00;62182.44;6282633;20;3621123;-61
2023/04/30 04:32:15;;;;;;;;;32.00;30.00;;;;;-146.39;100.00;62182.44;6282062;20;3583689;-61
2023/04/30 04:34:45;;;;;;;;;30.33;29.00;;;;;-146.39;100.00;62182.44;6279015;20;3589984;-61
2023/04/30 04:37:13;;;;;;;;;28.33;28.33;;;;;-146.39;100.00;62182.44;6315600;20;3574373;-61
2023/04/30 04:39:42;;;;;;;;;28.33;26.00;;;;;-146.39;100.00;62182.44;6279373;20;3572213;-61
2023/04/30 04:42:10;;;;;;;;;28.00;24.00;;;;;-146.39;100.00;62182.44;6278002;20;2856650;-61
2023/04/30 04:44:40;;;;;;;;;32.67;28.67;;;;;-146.39;100.00;62182.44;6279356;20;2846160;-61
2023/04/30 04:47:09;;;;;;;;;28.67;28.67;;;;;-146.39;100.00;62182.44;6313640;20;3584767;-61
2023/04/30 04:49:37;;;;;;;;;26.33;26.33;;;;;-146.39;100.00;62182.44;6281905;20;3595078;-60
2023/04/30 04:52:05;;;;;;;;;31.33;30.00;;;;;-146.39;100.00;62182.44;6282396;20;3572262;-61
2023/04/30 04:54:34;;;;;;;;;27.00;24.00;;;;;-146.39;100.00;62182.44;6313516;20;3588152;-61
2023/04/30 04:57:02;;;;;;;;;29.67;28.33;;;;;-146.39;100.00;62182.44;6284787;20;3578374;-61
2023/04/30 04:59:30;;;;;;;;;25.67;25.67;;;;;-146.39;100.00;62182.44;6314981;20;3581546;-61
2023/04/30 05:01:58;;;;;;;;;40.00;35.00;;;;;-146.39;100.00;62182.44;6277528;20;2726377;-61
2023/04/30 05:04:27;;;;;;;;;42.00;35.00;;;;;-146.39;100.00;62182.44;6312181;20;3601419;-62
2023/04/30 05:06:55;;;;;;;;;26.00;24.00;;;;;-146.39;100.00;62182.44;6283182;20;3592984;-62
2023/04/30 05:09:23;;;;;;;;;29.00;27.00;;;;;-146.39;100.00;62182.44;6280491;20;3595036;-62
2023/04/30 05:11:52;;;;;;;;;24.33;23.00;;;;;-146.39;100.00;62182.44;6278343;20;3588883;-61
2023/04/30 05:14:21;;;;;;;;;24.33;24.33;;;;;-146.39;100.00;62182.44;6310217;20;3587832;-61
2023/04/30 05:16:49;;;;;;;;;26.67;26.67;;;;;-146.39;100.00;62182.44;6279541;20;3600267;-62
2023/04/30 05:19:17;;;;;;;;;25.67;25.33;;;;;-146.39;100.00;62182.44;6284272;20;3591986;-62
2023/04/30 05:21:46;;;;;;;;;26.67;26.00;;;;;-146.39;100.00;62182.44;6278874;20;3602376;-61
2023/04/30 05:24:14;;;;;;;;;27.00;25.33;;;;;-146.39;100.00;62182.44;6313263;20;3599212;-61
2023/04/30 05:26:43;;;;;;;;;22.33;20.33;;;;;-146.39;100.00;62182.44;6279860;20;3576364;-61
2023/04/30 05:29:11;;;;;;;;;24.33;24.33;;;;;-146.39;100.00;62182.44;6281404;20;3595058;-61
2023/04/30 05:31:40;;;;;;;;;27.00;26.00;;;;;-146.39;100.00;62182.44;6280139;20;3596255;-62
2023/04/30 05:34:09;;;;;;;;;28.33;27.33;;;;;-146.39;100.00;62182.44;6280162;20;3603613;-61
2023/04/30 05:36:37;;;;;;;;;28.33;24.00;;;;;-146.39;100.00;62182.44;6277347;20;3587982;-61
2023/04/30 05:39:05;;;;;;;;;26.33;26.33;;;;;-146.39;100.00;62182.44;6279930;20;3597125;-62
2023/04/30 05:41:33;;;;;;;;;32.00;25.67;;;;;-146.39;100.00;62182.44;6281770;20;3603382;-61
2023/04/30 05:44:03;;;;;;;;;27.00;27.00;;;;;-146.39;100.00;62182.44;6276615;20;3601322;-61
2023/04/30 05:46:32;;;;;;;;;26.67;23.33;;;;;-146.39;100.00;62182.44;6279811;20;3584699;-61
2023/04/30 05:49:01;;;;;;;;;26.33;25.67;;;;;-146.39;100.00;62182.44;6276992;20;3596304;-61
2023/04/30 05:51:30;;;;;;;;;24.33;24.33;;;;;-146.39;100.00;62182.44;6310790;20;3593991;-60
2023/04/30 05:53:59;;;;;;;;;29.00;27.00;;;;;-146.39;100.00;62182.44;6283860;20;3597192;-60
2023/04/30 05:56:27;;;;;;;;;26.00;26.00;;;;;-146.39;100.00;62182.44;6278411;20;3593028;-60
2023/04/30 05:58:55;;;;;;;;;27.33;27.33;;;;;-146.39;100.00;62182.44;6281859;20;3583727;-61
2023/04/30 06:01:24;;;;;;;;;30.33;28.00;;;;;-146.39;100.00;62182.44;6281694;20;3586824;-61
2023/04/30 06:03:52;;;;;;;;;32.67;28.67;;;;;-146.39;100.00;62182.44;6287077;20;3589887;-61
2023/04/30 06:06:20;;;;;;;;;23.67;23.67;;;;;-146.39;100.00;62182.44;6283140;20;3595035;-61
2023/04/30 06:08:48;;;;;;;;;24.67;23.33;;;;;-146.39;100.00;62182.44;6283224;20;3585772;-61
2023/04/30 06:11:17;;;;;;;;;30.67;27.67;;;;;-146.39;100.00;62182.44;6283152;20;3590911;-61
2023/04/30 06:13:47;;;;;;;;;25.00;25.00;;;;;-146.39;100.00;62182.44;6284524;20;3588814;-60
2023/04/30 06:16:16;;;;;;;;;28.67;26.33;;;;;-146.39;100.00;62182.44;6287833;20;3590910;-61
2023/04/30 06:18:44;;;;;;;;;27.67;27.67;;;;;-146.39;100.00;62182.44;6289781;20;3597151;-61
2023/04/30 06:21:13;;;;;;;;;27.67;27.67;;;;;-146.39;100.00;62182.44;6288820;20;3599253;-61
2023/04/30 06:23:41;;;;;;;;;30.67;29.00;;;;;-146.39;100.00;62182.44;6290458;20;3585678;-61
2023/04/30 06:26:09;;;;;;;;;26.50;23.50;;;;;-146.39;100.00;62182.44;6283160;20;2846111;-61
2023/04/30 06:28:37;;;;;;;;;32.67;28.00;;;;;-146.39;100.00;62182.44;6284998;20;3610761;-61
2023/04/30 06:31:05;;;;;;;;;24.00;23.33;;;;;-146.39;100.00;62182.44;6287757;20;3587818;-61
2023/04/30 06:33:35;;;;;;;;;24.67;23.00;;;;;-146.39;100.00;62182.44;6285580;20;3593066;-61
2023/04/30 06:36:03;;;;;;;;;25.33;24.00;;;;;-146.39;100.00;62182.44;6320228;20;3588796;-60
2023/04/30 06:38:31;;;;;;;;;25.00;25.00;;;;;-146.39;100.00;62182.44;6285997;20;3589841;-61
2023/04/30 06:41:00;;;;;;;;;20.00;20.00;;;;;-146.39;100.00;62182.44;6284978;20;3560887;-60
2023/04/30 06:43:28;;;;;;;;;20.00;20.00;;;;;-146.39;100.00;62182.44;6316611;20;3577453;-61
2023/04/30 06:45:56;;;;;;;;;24.67;23.33;;;;;-146.39;100.00;62182.44;6285317;20;3577441;-60
2023/04/30 06:48:24;;;;;;;;;23.00;19.67;;;;;-146.39;100.00;62182.44;6286825;20;3564974;-60
2023/04/30 06:50:52;;;;;;;;;30.00;27.00;;;;;-146.39;100.00;62182.44;6284759;20;3600327;-60
2023/04/30 06:53:21;;;;;;;;;23.00;22.67;;;;;-146.39;100.00;62182.44;6285077;20;3587790;-60
2023/04/30 06:55:49;;;;;;;;;18.00;18.00;;;;;-146.39;100.00;62182.44;6289209;20;3574230;-60
2023/04/30 06:58:18;;;;;;;;;14.50;14.50;;;;;-146.39;100.00;62182.44;6285434;20;2810746;-59
2023/04/30 07:00:46;;;;;;;;;21.00;19.33;;;;;-146.39;100.00;62182.44;6289043;20;3579462;-60
2023/04/30 07:03:14;;;;;;;;;14.00;14.00;;;;;-146.39;100.00;62182.44;6286461;20;2810772;-60
2023/04/30 07:05:43;;;;;;;;;20.33;17.67;;;;;-146.39;100.00;62182.44;6287548;20;3564857;-60
2023/04/30 07:08:12;;;;;;;;;12.00;12.00;;;;;-146.39;100.00;62182.44;6285248;20;3515981;-60
2023/04/30 07:10:40;;;;;;;;;20.00;16.00;;;;;-146.39;100.00;62182.44;6288279;20;3557593;-60
2023/04/30 07:13:08;;;;;;;;;18.33;15.00;;;;;-146.39;100.00;62182.44;6289990;20;3552389;-60
2023/04/30 07:15:37;;;;;;;;;16.33;14.00;;;;;-146.39;100.00;62182.44;6318730;20;3544005;-60
2023/04/30 07:18:05;;;;;;;;;13.00;13.00;;;;;-146.39;100.00;62182.44;6316053;20;2794011;-60
2023/04/30 07:20:33;;;;;;;;;11.67;11.00;;;;;-146.39;100.00;62182.44;6316771;20;3510822;-60
2023/04/30 07:23:01;;;;;;;;;10.67;10.00;;;;;-146.39;100.00;62182.44;6290050;20;2794020;-60
2023/04/30 07:25:29;;;;;;;;;10.33;10.00;;;;;-146.39;100.00;62182.44;6315780;20;3514911;-60
2023/04/30 07:27:57;;;;;;;;;9.67;7.33;;;;;-146.39;100.00;62182.44;6315787;20;2759681;-60
2023/04/30 07:30:26;;;;;;;;;17.00;16.00;;;;;-146.39;100.00;62182.44;6317936;20;3560655;-60
2023/04/30 07:32:54;;;;;;;;;13.00;13.00;;;;;-146.39;100.00;62182.44;6285823;20;3530493;-61
2023/04/30 07:35:22;;;;;;;;;12.00;11.00;;;;;-146.39;100.00;62182.44;6314482;20;3519131;-60
2023/04/30 07:37:51;;;;;;;;;6.20;6.20;;;;;-146.39;100.00;62182.44;6343408;20;2744145;-60
2023/04/30 07:40:19;;;;;;;;;12.00;12.00;;;;;-146.39;100.00;62182.44;6322938;20;2792009;-60
2023/04/30 07:43:06;;;;;;;;;6.40;6.40;;;;;-146.39;100.00;62182.44;6341968;20;2738986;-60
2023/04/30 07:45:35;;;;;;;;;10.67;8.67;;;;;-146.39;100.00;62182.44;6317044;20;2761736;-60
2023/04/30 07:48:04;;;;;;;;;11.00;9.00;;;;;-146.39;100.00;62182.44;6341561;20;2774261;-60
2023/04/30 07:50:33;;;;;;;;;18.33;15.00;;;;;-146.39;100.00;62182.44;6288083;20;3555572;-60
2023/04/30 07:53:01;;;;;;;;;12.00;9.00;;;;;-146.39;100.00;62182.44;6319503;20;2766278;-60
2023/04/30 07:55:30;;;;;;;;;7.60;7.60;;;;;-146.39;100.00;62182.44;6343259;20;2750310;-60
2023/04/30 07:57:58;;;;;;;;;10.33;9.33;;;;;-146.39;100.00;62182.44;6286135;20;2772211;-60
2023/04/30 08:00:29;;;;;;;;;7.80;7.80;;;;;-146.39;100.00;62182.44;6341466;20;2754509;-60
2023/04/30 08:02:59;;;;;;;;;9.00;8.00;;;;;-146.39;100.00;62182.44;6281890;20;2756519;-59
2023/04/30 08:05:27;;;;;;;;;7.33;7.33;;;;;-146.39;100.00;62182.44;6324276;20;2746205;-60
2023/04/30 08:07:55;;;;;;;;;9.00;9.00;;;;;-146.39;100.00;62182.44;6323425;20;2752367;-60
2023/04/30 08:10:25;;;;;;;;;8.40;7.20;;;;;-146.39;100.00;62182.44;6342465;20;2740903;-59
2023/04/30 08:12:54;;;;;;;;;8.60;8.00;;;;;-146.39;100.00;62182.44;6341319;20;2756537;-59
2023/04/30 08:15:22;;;;;;;;;7.67;7.67;;;;;-146.39;100.00;62182.44;6287005;20;2743023;-60
2023/04/30 08:17:51;;;;;;;;;9.33;7.67;;;;;-146.39;100.00;62182.44;6324428;20;2748213;-59
2023/04/30 08:20:22;;;;;;;;;8.20;8.20;;;;;-146.39;100.00;62182.44;6340477;20;2740887;-59
2023/04/30 08:22:50;;;;;;;;;10.00;9.33;;;;;-146.39;100.00;62182.44;6281436;20;2774767;-60
2023/04/30 08:25:19;;;;;;;;;3.20;3.20;;;;;-146.39;100.00;62182.44;6340545;20;2756584;-61
2023/04/30 08:27:47;;;;;;;;;7.00;7.00;;;;;-146.39;100.00;62182.44;6281633;20;2737786;-60
2023/04/30 08:30:17;;;;;;;;;8.40;8.40;;;;;-146.39;100.00;62182.44;6342915;20;2754563;-59
2023/04/30 08:32:45;;;;;;;;;10.00;8.00;;;;;-146.39;100.00;62182.44;6285333;20;2766931;-59
2023/04/30 08:35:13;;;;;;;;;10.33;10.33;;;;;-146.39;100.00;62182.44;6315083;20;3516935;-59
2023/04/30 08:37:41;;;;;;;;;8.67;8.67;;;;;-146.39;100.00;62182.44;6283195;20;2750262;-60
2023/04/30 08:40:11;;;;;;;;;13.67;13.67;;;;;-146.39;100.00;62182.44;6316024;20;3537932;-60
2023/04/30 08:42:46;;;;;;;;;6.67;6.67;;;;;-146.39;100.00;62182.44;6297507;20;2746165;-59
2023/04/30 08:45:15;;;;;;;;;10.33;9.00;;;;;-146.39;100.00;62182.44;6320353;20;2778522;-59
2023/04/30 08:47:44;;;;;;;;;12.67;9.67;;;;;-146.39;100.00;62182.44;6321059;20;2774371;-59
2023/04/30 08:50:12;;;;;;;;;8.33;8.33;;;;;-146.39;100.00;62182.44;6313642;20;2738920;-59
2023/04/30 08:52:43;;;;;;;;;8.00;7.80;;;;;-146.39;100.00;62182.44;6340778;20;2750380;-59
2023/04/30 08:55:12;;;;;;;;;9.00;9.00;;;;;-146.39;100.00;62182.44;6307825;20;2738867;-59
2023/04/30 08:57:41;;;;;;;;;10.60;6.20;;;;;-146.39;100.00;62182.44;6340346;20;2764902;-59
2023/04/30 09:00:09;;;;;;;;;8.00;8.00;;;;;-146.39;100.00;62182.44;6288570;20;2731579;-59
2023/04/30 09:02:41;;;;;;;;;7.00;7.00;;;;;-146.39;100.00;62182.44;6292359;20;2766971;-59
2023/04/30 09:05:12;;;;;;;;;7.00;7.00;;;;;-146.39;100.00;62182.44;6341869;20;2732578;-60
2023/04/30 09:07:43;;;;;;;;;17.00;14.33;;;;;-146.39;100.00;62182.44;6314636;20;3536802;-60
2023/04/30 09:10:33;;;;;;;;;10.20;9.40;;;;;-146.39;100.00;62182.44;6342692;20;2781562;-60
2023/04/30 09:13:07;;;;;;;;;9.00;8.00;;;;;-146.39;100.00;62182.44;6286169;20;2756542;-60
2023/04/30 09:15:40;;;;;;;;;11.60;9.40;;;;;-146.39;100.00;62182.44;6339967;20;2782559;-60
2023/04/30 09:18:17;;;;;;;;;6.67;6.67;;;;;-146.39;100.00;62182.44;6287589;20;2744018;-60
2023/04/30 09:20:57;;;;;;;;;11.00;10.00;;;;;-146.39;100.00;62182.44;6314304;20;3513905;-58
2023/04/30 09:23:27;;;;;;;;;9.20;8.20;;;;;-146.39;100.00;62182.44;6339090;20;2751411;-58
2023/04/30 09:25:55;;;;;;;;;9.00;8.00;;;;;-146.39;100.00;62182.44;6278094;20;2743006;-59
2023/04/30 09:28:25;;;;;;;;;10.33;9.00;;;;;-146.39;100.00;62182.44;6320002;20;2775278;-59
2023/04/30 09:30:58;;;;;;;;;8.40;7.20;;;;;-146.39;100.00;62182.44;6342286;20;2759719;-59
2023/04/30 09:33:29;;;;;;;;;8.20;6.60;;;;;-146.39;100.00;62182.44;6305562;20;2735855;-59
2023/04/30 09:36:08;;;;;;;;;5.60;5.60;;;;;-146.39;100.00;62182.44;6338019;20;2737836;-59
2023/04/30 09:38:39;;;;;;;;;6.20;6.20;;;;;-146.39;100.00;62182.44;6339165;20;2735849;-60
2023/04/30 09:41:26;;;;;;;;;7.00;7.00;;;;;-146.39;100.00;62182.44;6340023;20;2750312;-60
2023/04/30 09:43:56;;;;;;;;;6.60;5.00;;;;;-146.39;100.00;62182.44;6308741;20;2730558;-61
2023/04/30 09:46:36;;;;;;;;;6.40;6.40;;;;;-146.39;100.00;62182.44;6339475;20;2748209;-59
2023/04/30 09:49:06;;;;;;;;;4.00;4.00;;;;;-146.39;100.00;62182.44;6308538;20;2752333;-60
2023/04/30 09:51:34;;;;;;;;;4.67;4.67;;;;;-146.39;100.00;62182.44;6288928;20;2747244;-59
2023/04/30 09:54:08;;;;;;;;;9.80;7.20;;;;;-146.39;100.00;62182.44;6344505;20;2760685;-59
2023/04/30 09:56:38;;;;;;;;;5.60;5.60;;;;;-146.39;100.00;62182.44;6310507;20;2737819;-60
2023/04/30 09:59:08;;;;;;;;;7.00;7.00;;;;;-146.39;100.00;62182.44;6345228;20;2748226;-59
2023/04/30 10:01:38;;;;;;;;;6.00;6.00;;;;;-146.39;100.00;62182.44;6311754;20;2744040;-60
2023/04/30 10:04:09;;;;;;;;;6.40;5.40;;;;;-146.39;100.00;62182.44;6344688;20;2748355;-60
2023/04/30 10:06:38;;;;;;;;;4.60;4.60;;;;;-146.39;100.00;62182.44;6311755;20;2750272;-60
2023/04/30 10:09:10;;;;;;;;;7.00;7.00;;;;;-146.39;100.00;62182.44;6290026;20;2734715;-60
2023/04/30 10:11:41;;;;;;;;;7.80;7.80;;;;;-146.39;100.00;62182.44;6345908;20;2735783;-60
2023/04/30 10:14:12;;;;;;;;;6.00;6.00;;;;;-146.39;100.00;62182.44;6310821;20;2746147;-60
2023/04/30 10:17:03;;;;;;;;;7.00;7.00;;;;;-146.39;100.00;62182.44;6288134;20;2736768;-59
2023/04/30 10:19:35;;;;;;;;;7.00;7.00;;;;;-146.39;100.00;62182.44;6340022;20;2729504;-60
2023/04/30 10:22:05;;;;;;;;;8.33;7.00;;;;;-146.39;100.00;62182.44;6314659;20;2744077;-60
2023/04/30 10:24:35;;;;;;;;;8.60;8.20;;;;;-146.39;100.00;62182.44;6344497;20;2740930;-60
2023/04/30 10:27:03;;;;;;;;;15.50;15.50;;;;;-146.39;100.00;62182.44;6285596;20;2821217;-60
2023/04/30 10:29:31;;;;;;;;;5.33;5.33;;;;;-146.39;100.00;62182.44;6291530;20;2745123;-60
2023/04/30 10:32:03;;;;;;;;;6.40;6.40;;;;;-146.39;100.00;62182.44;6345783;20;2734659;-60
2023/04/30 10:35:05;;;;;;;;;7.00;7.00;;;;;-146.39;100.00;62182.44;6317290;20;2733698;-59
2023/04/30 10:37:45;;;;;;;;;6.67;5.67;;;;;-146.39;100.00;62182.44;6327590;20;2733702;-59
2023/04/30 10:40:14;;;;;;;;;5.00;5.00;;;;;-146.39;100.00;62182.44;6344755;20;2745177;-59
2023/04/30 10:42:48;;;;;;;;;7.60;6.00;;;;;-146.39;100.00;62182.44;6342667;20;2739874;-60
2023/04/30 10:45:19;;;;;;;;;5.60;5.60;;;;;-146.39;100.00;62182.44;6342463;20;2735749;-59
2023/04/30 10:47:48;;;;;;;;;4.80;4.80;;;;;-146.39;100.00;62182.44;6341300;20;2737807;-60
2023/04/30 10:50:22;;;;;;;;;6.60;6.60;;;;;-146.39;100.00;62182.44;6343099;20;2736763;-60
2023/04/30 10:53:02;;;;;;;;;9.60;8.40;;;;;-146.39;100.00;62182.44;6314193;20;2753412;-61
2023/04/30 10:55:32;;;;;;;;;9.20;7.00;;;;;-146.39;100.00;62182.44;6310327;20;2747184;-59
2023/04/30 10:58:25;;;;;;;;;5.40;5.40;;;;;-146.39;100.00;62182.44;6310440;20;2743096;-60